createdAt,value
2022-11-29T00:00:50.034Z,101284.84
2022-11-29T00:03:16.871Z,101279.53
2022-11-29T00:05:43.867Z,101286.66
2022-11-29T00:08:10.916Z,101270.13
2022-11-29T00:10:38.033Z,101284.31
2022-11-29T00:13:05.528Z,101279.84
2022-11-29T00:15:36.687Z,101286.03
2022-11-29T00:18:04.321Z,101277.16
2022-11-29T00:20:31.410Z,101277.28
2022-11-29T00:22:58.311Z,101272.91
2022-11-29T00:25:25.549Z,101272.31
2022-11-29T00:27:52.524Z,101273.28
2022-11-29T00:30:20.418Z,101268.00
2022-11-29T00:32:47.487Z,101269.72
2022-11-29T00:35:14.603Z,101257.47
2022-11-29T00:37:41.424Z,101257.41
2022-11-29T00:40:08.747Z,101252.12
2022-11-29T00:42:35.558Z,101255.69
2022-11-29T00:45:02.380Z,101261.16
2022-11-29T00:47:29.402Z,101256.69
2022-11-29T00:49:56.207Z,101254.03
2022-11-29T00:52:22.988Z,101252.56
2022-11-29T00:54:49.804Z,101249.03
2022-11-29T00:57:16.718Z,101254.31
2022-11-29T00:59:43.482Z,101248.16
2022-11-29T01:02:10.355Z,101256.03
2022-11-29T01:04:37.315Z,101248.94
2022-11-29T01:07:04.148Z,101244.66
2022-11-29T01:09:31.230Z,101231.56
2022-11-29T01:11:58.096Z,101227.06
2022-11-29T01:14:24.925Z,101239.47
2022-11-29T01:16:51.852Z,101236.72
2022-11-29T01:19:18.939Z,101240.19
2022-11-29T01:21:45.817Z,101241.09
2022-11-29T01:24:12.722Z,101238.56
2022-11-29T01:26:39.626Z,101237.75
2022-11-29T01:29:06.446Z,101239.53
2022-11-29T01:31:38.170Z,101243.16
2022-11-29T01:34:06.551Z,101238.81
2022-11-29T01:36:34.498Z,101244.03
2022-11-29T01:39:03.475Z,101250.28
2022-11-29T01:41:32.738Z,101246.75
2022-11-29T01:44:12.976Z,101237.88
2022-11-29T01:46:44.448Z,101236.06
2022-11-29T01:49:15.845Z,101239.53
2022-11-29T01:51:46.188Z,101240.56
2022-11-29T01:54:13.788Z,101235.38
2022-11-29T01:56:41.573Z,101237.94
2022-11-29T01:59:12.045Z,101234.53
2022-11-29T02:01:39.053Z,101236.16
2022-11-29T02:04:06.641Z,101236.13
2022-11-29T02:06:33.963Z,101245.94
2022-11-29T02:09:01.072Z,101239.00
2022-11-29T02:11:40.035Z,101243.50
2022-11-29T02:14:12.567Z,101245.03
2022-11-29T02:17:01.315Z,101243.31
2022-11-29T02:20:25.336Z,101239.69
2022-11-29T02:22:59.148Z,101244.13
2022-11-29T02:25:47.124Z,101247.59
2022-11-29T02:28:22.683Z,101256.38
2022-11-29T02:30:55.578Z,101251.19
2022-11-29T02:34:03.766Z,101257.19
2022-11-29T02:36:50.158Z,101253.72
2022-11-29T02:39:55.358Z,101259.03
2022-11-29T02:42:22.111Z,101244.94
2022-11-29T02:45:13.960Z,101250.41
2022-11-29T02:48:11.931Z,101252.06
2022-11-29T02:50:50.276Z,101245.00
2022-11-29T02:53:27.380Z,101254.75
2022-11-29T02:56:10.835Z,101255.56
2022-11-29T02:59:09.674Z,101261.69
2022-11-29T03:01:53.228Z,101255.56
2022-11-29T03:04:50.076Z,101259.09
2022-11-29T03:07:43.266Z,101271.47
2022-11-29T03:10:29.124Z,101273.31
2022-11-29T03:12:56.762Z,101275.91
2022-11-29T03:15:34.975Z,101273.28
2022-11-29T03:18:20.578Z,101270.66
2022-11-29T03:20:55.442Z,101276.09
2022-11-29T03:23:25.866Z,101268.22
2022-11-29T03:26:01.648Z,101270.72
2022-11-29T03:28:32.071Z,101273.38
2022-11-29T03:31:14.299Z,101275.13
2022-11-29T03:34:11.107Z,101275.19
2022-11-29T03:36:51.210Z,101274.31
2022-11-29T03:39:23.342Z,101276.81
2022-11-29T03:41:56.363Z,101278.56
2022-11-29T03:44:27.425Z,101276.75
2022-11-29T03:47:02.446Z,101278.50
2022-11-29T03:49:33.361Z,101281.13
2022-11-29T03:52:12.754Z,101278.44
2022-11-29T03:54:49.687Z,101288.34
2022-11-29T03:57:21.090Z,101291.00
2022-11-29T04:00:05.844Z,101288.34
2022-11-29T04:02:57.757Z,101295.50
2022-11-29T04:05:49.439Z,101297.25
2022-11-29T04:08:35.049Z,101294.66
2022-11-29T04:11:23.115Z,101298.97
2022-11-29T04:14:14.206Z,101298.06
2022-11-29T04:16:58.887Z,101302.41
2022-11-29T04:19:55.753Z,101311.34
2022-11-29T04:22:52.410Z,101305.06
2022-11-29T04:25:34.311Z,101303.38
2022-11-29T04:28:34.911Z,101305.97
2022-11-29T04:31:26.513Z,101309.53
2022-11-29T04:34:08.514Z,101307.81
2022-11-29T04:36:57.494Z,101302.53
2022-11-29T04:39:32.431Z,101305.94
2022-11-29T04:42:08.131Z,101298.09
2022-11-29T04:44:56.513Z,101307.00
2022-11-29T04:47:38.127Z,101311.50
2022-11-29T04:50:10.718Z,101302.53
2022-11-29T04:52:55.429Z,101305.19
2022-11-29T04:55:33.997Z,101313.22
2022-11-29T04:58:24.618Z,101305.97
2022-11-29T05:01:00.373Z,101305.94
2022-11-29T05:03:41.864Z,101301.44
2022-11-29T05:06:27.983Z,101307.87
2022-11-29T05:09:00.435Z,101316.56
2022-11-29T05:12:04.581Z,101318.28
2022-11-29T05:15:09.033Z,101317.59
2022-11-29T05:18:11.183Z,101327.50
2022-11-29T05:21:03.563Z,101323.94
2022-11-29T05:23:50.124Z,101324.75
2022-11-29T05:26:28.761Z,101322.06
2022-11-29T05:29:06.409Z,101324.59
2022-11-29T05:32:06.846Z,101334.16
2022-11-29T05:34:47.783Z,101330.53
2022-11-29T05:37:42.733Z,101320.22
2022-11-29T05:40:20.403Z,101334.16
2022-11-29T05:43:24.170Z,101314.13
2022-11-29T05:45:57.998Z,101328.22
2022-11-29T05:48:37.469Z,101323.69
2022-11-29T05:51:29.049Z,101327.19
2022-11-29T05:54:01.920Z,101327.38
2022-11-29T05:56:47.586Z,101325.53
2022-11-29T05:59:19.500Z,101336.00
2022-11-29T06:02:05.278Z,101335.31
2022-11-29T06:04:32.214Z,101336.28
2022-11-29T06:07:39.115Z,101344.22
2022-11-29T06:10:07.172Z,101344.25
2022-11-29T06:12:37.987Z,101341.84
2022-11-29T06:15:17.197Z,101354.03
2022-11-29T06:17:52.799Z,101352.13
2022-11-29T06:20:44.028Z,101352.25
2022-11-29T06:23:16.872Z,101359.19
2022-11-29T06:25:53.349Z,101359.13
2022-11-29T06:28:38.298Z,101361.00
2022-11-29T06:31:05.232Z,101363.72
2022-11-29T06:33:38.012Z,101365.50
2022-11-29T06:36:30.583Z,101369.78
2022-11-29T06:38:57.668Z,101365.31
2022-11-29T06:41:24.916Z,101364.38
2022-11-29T06:43:52.120Z,101377.69
2022-11-29T06:46:23.520Z,101377.69
2022-11-29T06:49:02.299Z,101371.41
2022-11-29T06:51:48.106Z,101370.56
2022-11-29T06:54:20.639Z,101376.63
2022-11-29T06:57:12.185Z,101368.91
2022-11-29T07:00:25.658Z,101361.97
2022-11-29T07:03:24.523Z,101374.22
2022-11-29T07:05:52.033Z,101366.41
2022-11-29T07:08:21.519Z,101369.16
2022-11-29T07:10:53.092Z,101371.75
2022-11-29T07:13:20.600Z,101377.84
2022-11-29T07:16:16.353Z,101370.78
2022-11-29T07:18:45.246Z,101371.84
2022-11-29T07:21:46.187Z,101370.88
2022-11-29T07:25:08.593Z,101378.84
2022-11-29T07:27:41.350Z,101378.84
2022-11-29T07:30:25.823Z,101377.94
2022-11-29T07:33:19.323Z,101369.97
2022-11-29T07:36:02.127Z,101384.75
2022-11-29T07:38:48.056Z,101376.00
2022-11-29T07:41:21.230Z,101377.62
2022-11-29T07:44:12.404Z,101382.87
2022-11-29T07:46:39.274Z,101385.53
2022-11-29T07:49:06.271Z,101388.06
2022-11-29T07:51:33.140Z,101381.84
2022-11-29T07:54:00.136Z,101386.22
2022-11-29T07:56:26.966Z,101393.31
2022-11-29T07:58:54.004Z,101395.94
2022-11-29T08:01:20.854Z,101399.50
2022-11-29T08:03:47.643Z,101392.41
2022-11-29T08:06:14.491Z,101394.97
2022-11-29T08:08:44.178Z,101390.50
2022-11-29T08:11:12.773Z,101397.97
2022-11-29T08:13:39.572Z,101384.66
2022-11-29T08:16:06.667Z,101395.94
2022-11-29T08:18:33.566Z,101395.81
2022-11-29T08:21:06.272Z,101393.13
2022-11-29T08:23:33.131Z,101386.91
2022-11-29T08:26:03.451Z,101387.84
2022-11-29T08:28:30.315Z,101386.16
2022-11-29T08:31:01.698Z,101382.53
2022-11-29T08:33:29.108Z,101384.19
2022-11-29T08:35:56.402Z,101390.28
2022-11-29T08:38:23.205Z,101388.53
2022-11-29T08:40:49.971Z,101385.41
2022-11-29T08:43:16.755Z,101389.59
2022-11-29T08:45:43.597Z,101374.81
2022-11-29T08:48:10.713Z,101393.37
2022-11-29T08:50:37.564Z,101394.91
2022-11-29T08:53:23.045Z,101390.38
2022-11-29T08:55:50.509Z,101385.09
2022-11-29T08:58:17.391Z,101391.25
2022-11-29T09:00:46.421Z,101395.66
2022-11-29T09:03:31.987Z,101391.19
2022-11-29T09:05:59.734Z,101396.44
2022-11-29T09:08:26.648Z,101389.44
2022-11-29T09:10:53.614Z,101401.06
2022-11-29T09:13:20.463Z,101391.09
2022-11-29T09:15:47.325Z,101398.28
2022-11-29T09:18:14.195Z,101393.63
2022-11-29T09:20:44.831Z,101395.25
2022-11-29T09:23:13.065Z,101384.59
2022-11-29T09:25:40.236Z,101390.03
2022-11-29T09:28:07.445Z,101376.81
2022-11-29T09:30:36.497Z,101385.78
2022-11-29T09:33:04.847Z,101385.44
2022-11-29T09:35:31.708Z,101380.25
2022-11-29T09:37:58.531Z,101388.31
2022-11-29T09:40:40.360Z,101382.91
2022-11-29T09:43:23.038Z,101377.62
2022-11-29T09:45:55.542Z,101379.56
2022-11-29T09:48:45.408Z,101378.47
2022-11-29T09:51:24.326Z,101378.53
2022-11-29T09:53:51.113Z,101370.56
2022-11-29T09:56:46.652Z,101366.19
2022-11-29T09:59:29.392Z,101376.94
2022-11-29T10:02:22.000Z,101364.41
2022-11-29T10:04:53.742Z,101361.53
2022-11-29T10:07:26.459Z,101356.06
2022-11-29T10:10:09.441Z,101361.69
2022-11-29T10:12:44.395Z,101350.88
2022-11-29T10:15:14.171Z,101352.69
2022-11-29T10:17:50.616Z,101352.75
2022-11-29T10:20:20.625Z,101349.19
2022-11-29T10:22:53.616Z,101350.53
2022-11-29T10:25:25.345Z,101342.28
2022-11-29T10:27:53.155Z,101340.50
2022-11-29T10:30:20.298Z,101331.84
2022-11-29T10:32:51.365Z,101331.69
2022-11-29T10:35:20.505Z,101333.34
2022-11-29T10:38:07.680Z,101332.72
2022-11-29T10:40:36.539Z,101340.06
2022-11-29T10:43:04.130Z,101336.53
2022-11-29T10:45:50.973Z,101335.75
2022-11-29T10:48:20.230Z,101327.53
2022-11-29T10:50:48.815Z,101338.44
2022-11-29T10:53:23.032Z,101324.97
2022-11-29T10:55:49.896Z,101324.13
2022-11-29T10:58:22.107Z,101320.53
2022-11-29T11:00:54.507Z,101312.31
2022-11-29T11:03:39.670Z,101313.41
2022-11-29T11:06:12.797Z,101314.28
2022-11-29T11:08:43.652Z,101298.31
2022-11-29T11:11:10.999Z,101301.69
2022-11-29T11:13:39.285Z,101291.69
2022-11-29T11:16:10.753Z,101280.19
2022-11-29T11:18:38.341Z,101293.53
2022-11-29T11:21:09.850Z,101287.66
2022-11-29T11:23:42.765Z,101282.28
2022-11-29T11:26:12.242Z,101280.69
2022-11-29T11:29:00.662Z,101283.59
2022-11-29T11:31:33.034Z,101282.06
2022-11-29T11:34:28.900Z,101281.59
2022-11-29T11:37:19.683Z,101281.25
2022-11-29T11:39:49.238Z,101273.09
2022-11-29T11:42:37.689Z,101272.41
2022-11-29T11:45:10.399Z,101277.22
2022-11-29T11:47:43.430Z,101276.41
2022-11-29T11:50:16.707Z,101268.31
2022-11-29T11:52:50.879Z,101279.06
2022-11-29T11:55:40.222Z,101274.44
2022-11-29T11:58:13.154Z,101260.97
2022-11-29T12:03:33.553Z,101264.84
2022-11-29T12:06:10.577Z,101270.22
2022-11-29T12:08:38.241Z,101258.41
2022-11-29T12:11:08.038Z,101270.22
2022-11-29T12:13:40.124Z,101252.41
2022-11-29T12:16:17.295Z,101258.66
2022-11-29T12:18:50.330Z,101267.03
2022-11-29T12:21:21.790Z,101263.50
2022-11-29T12:24:00.550Z,101250.97
2022-11-29T12:26:58.020Z,101248.50
2022-11-29T12:29:29.369Z,101250.09
2022-11-29T12:32:14.088Z,101249.63
2022-11-29T12:34:56.175Z,101262.09
2022-11-29T12:37:41.064Z,101253.22
2022-11-29T12:40:13.980Z,101258.53
2022-11-29T12:43:02.631Z,101253.22
2022-11-29T12:45:31.916Z,101255.50
2022-11-29T12:48:10.217Z,101256.31
2022-11-29T12:50:43.185Z,101259.22
2022-11-29T12:53:51.663Z,101264.53
2022-11-29T12:56:28.509Z,101264.56
2022-11-29T12:59:01.548Z,101252.16
2022-11-29T13:01:53.902Z,101263.69
2022-11-29T13:05:04.381Z,101258.53
2022-11-29T13:07:47.392Z,101262.94
2022-11-29T13:10:18.091Z,101261.28
2022-11-29T13:13:10.900Z,101270.09
2022-11-29T13:16:04.800Z,101268.34
2022-11-29T13:18:34.216Z,101265.69
2022-11-29T13:21:07.810Z,101269.25
2022-11-29T13:23:45.845Z,101267.37
2022-11-29T13:26:24.965Z,101268.19
2022-11-29T13:28:52.304Z,101279.72
2022-11-29T13:31:21.739Z,101278.91
2022-11-29T13:33:59.083Z,101270.97
2022-11-29T13:36:44.802Z,101278.91
2022-11-29T13:39:36.702Z,101277.13
2022-11-29T13:42:40.067Z,101275.28
2022-11-29T13:45:26.841Z,101269.16
2022-11-29T13:47:58.949Z,101268.19
2022-11-29T13:50:42.466Z,101259.31
2022-11-29T13:53:17.103Z,101262.75
2022-11-29T13:55:59.891Z,101261.91
2022-11-29T13:58:36.168Z,101263.75
2022-11-29T14:01:12.494Z,101265.69
2022-11-29T14:03:46.365Z,101263.06
2022-11-29T14:06:23.756Z,101272.88
2022-11-29T14:09:20.712Z,101276.53
2022-11-29T14:11:51.419Z,101280.16
2022-11-29T14:14:36.877Z,101275.81
2022-11-29T14:17:05.752Z,101275.09
2022-11-29T14:19:36.576Z,101268.91
2022-11-29T14:22:05.386Z,101275.13
2022-11-29T14:24:32.130Z,101280.50
2022-11-29T14:27:21.607Z,101284.91
2022-11-29T14:29:53.764Z,101281.50
2022-11-29T14:32:41.553Z,101291.25
2022-11-29T14:35:12.743Z,101292.31
2022-11-29T14:37:42.515Z,101290.66
2022-11-29T14:40:21.047Z,101299.59
2022-11-29T14:42:48.725Z,101297.97
2022-11-29T14:45:44.946Z,101299.91
2022-11-29T14:48:28.772Z,101299.09
2022-11-29T14:51:17.865Z,101302.78
2022-11-29T14:53:46.461Z,101294.94
2022-11-29T14:56:31.766Z,101295.00
2022-11-29T14:59:36.386Z,101297.69
2022-11-29T15:02:32.828Z,101283.63
2022-11-29T15:05:47.834Z,101285.50
2022-11-29T15:08:27.209Z,101289.09
2022-11-29T15:10:58.923Z,101290.97
2022-11-29T15:13:31.933Z,101291.06
2022-11-29T15:16:09.461Z,101284.09
2022-11-29T15:19:17.469Z,101297.38
2022-11-29T15:21:54.141Z,101291.34
2022-11-29T15:24:26.821Z,101287.06
2022-11-29T15:26:59.956Z,101295.97
2022-11-29T15:29:29.103Z,101293.38
2022-11-29T15:31:59.751Z,101292.56
2022-11-29T15:34:34.443Z,101291.75
2022-11-29T15:37:01.823Z,101297.09
2022-11-29T15:39:36.729Z,101301.56
2022-11-29T15:42:11.410Z,101295.47
2022-11-29T15:44:45.637Z,101294.63
2022-11-29T15:47:26.540Z,101300.84
2022-11-29T15:49:54.424Z,101304.41
2022-11-29T15:52:33.924Z,101293.94
2022-11-29T15:55:06.840Z,101307.16
2022-11-29T15:57:38.267Z,101311.63
2022-11-29T16:00:07.859Z,101307.25
2022-11-29T16:02:38.192Z,101303.78
2022-11-29T16:05:16.247Z,101314.38
2022-11-29T16:07:44.294Z,101312.66
2022-11-29T16:10:33.482Z,101311.78
2022-11-29T16:13:31.502Z,101312.66
2022-11-29T16:16:17.985Z,101312.72
2022-11-29T16:18:47.277Z,101309.19
2022-11-29T16:21:28.965Z,101311.84
2022-11-29T16:23:56.676Z,101316.28
2022-11-29T16:26:33.975Z,101318.03
2022-11-29T16:29:01.383Z,101321.53
2022-11-29T16:31:34.646Z,101321.53
2022-11-29T16:34:10.038Z,101321.53
2022-11-29T16:36:37.090Z,101321.56
2022-11-29T16:39:08.227Z,101315.44
2022-11-29T16:41:39.014Z,101314.56
2022-11-29T16:44:08.946Z,101313.72
2022-11-29T16:46:39.832Z,101320.75
2022-11-29T16:49:32.635Z,101316.41
2022-11-29T16:51:59.787Z,101319.06
2022-11-29T16:54:28.736Z,101311.22
2022-11-29T16:56:56.811Z,101318.28
2022-11-29T16:59:27.829Z,101318.31
2022-11-29T17:01:56.401Z,101271.84
2022-11-29T17:04:25.179Z,101320.97
2022-11-29T17:06:56.260Z,101327.09
2022-11-29T17:09:28.694Z,101321.84
2022-11-29T17:11:56.211Z,101335.06
2022-11-29T17:14:23.251Z,101330.69
2022-11-29T17:16:52.150Z,101329.84
2022-11-29T17:19:22.097Z,101333.34
2022-11-29T17:21:49.170Z,101342.13
2022-11-29T17:24:18.897Z,101344.72
2022-11-29T17:26:46.170Z,101343.88
2022-11-29T17:29:14.778Z,101343.03
2022-11-29T17:31:46.055Z,101333.31
2022-11-29T17:34:13.445Z,101350.00
2022-11-29T17:36:40.662Z,101352.63
2022-11-29T17:39:07.908Z,101354.38
2022-11-29T17:41:34.785Z,101354.41
2022-11-29T17:44:02.505Z,101353.53
2022-11-29T17:46:32.055Z,101344.78
2022-11-29T17:49:00.410Z,101347.38
2022-11-29T17:54:14.816Z,101364.97
2022-11-29T17:56:41.772Z,101368.47
2022-11-29T17:59:09.026Z,101363.22
2022-11-29T18:01:36.900Z,101374.62
2022-11-29T18:04:05.635Z,101364.09
2022-11-29T18:06:40.398Z,101367.62
2022-11-29T18:09:09.574Z,101372.87
2022-11-29T18:11:47.119Z,101359.72
2022-11-29T18:14:23.847Z,101354.47
2022-11-29T18:16:51.753Z,101359.75
2022-11-29T18:19:21.320Z,101362.41
2022-11-29T18:21:50.302Z,101365.91
2022-11-29T18:24:19.381Z,101365.94
2022-11-29T18:26:46.755Z,101367.69
2022-11-29T18:29:14.299Z,101345.78
2022-11-29T18:31:43.355Z,101367.72
2022-11-29T18:34:13.069Z,101372.97
2022-11-29T18:36:45.739Z,101373.88
2022-11-29T18:39:16.248Z,101365.97
2022-11-29T18:41:44.988Z,101375.63
2022-11-29T18:44:14.945Z,101364.22
2022-11-29T18:46:43.564Z,101373.00
2022-11-29T18:49:16.723Z,101380.88
2022-11-29T18:51:46.050Z,101374.75
2022-11-29T18:54:14.498Z,101360.69
2022-11-29T18:56:42.241Z,101366.84
2022-11-29T18:59:12.520Z,101364.19
2022-11-29T19:01:42.615Z,101366.81
2022-11-29T19:04:13.760Z,101366.84
2022-11-29T19:06:41.624Z,101368.59
2022-11-29T19:09:19.442Z,101370.34
2022-11-29T19:11:48.765Z,101372.06
2022-11-29T19:14:15.696Z,101378.22
2022-11-29T19:16:45.199Z,101383.50
2022-11-29T19:19:12.662Z,101375.69
2022-11-29T19:21:40.441Z,101384.41
2022-11-29T19:24:14.172Z,101386.16
2022-11-29T19:26:44.452Z,101391.41
2022-11-29T19:29:12.861Z,101398.41
2022-11-29T19:31:40.525Z,101400.19
2022-11-29T19:34:07.778Z,101392.31
2022-11-29T19:36:37.092Z,101394.91
2022-11-29T19:39:05.014Z,101392.25
2022-11-29T19:41:35.017Z,101384.34
2022-11-29T19:44:04.471Z,101387.81
2022-11-29T19:46:44.634Z,101386.91
2022-11-29T19:49:13.204Z,101384.28
2022-11-29T19:51:40.895Z,101372.87
2022-11-29T19:54:10.227Z,101381.63
2022-11-29T19:56:38.937Z,101379.00
2022-11-29T19:59:07.442Z,101382.53
2022-11-29T20:01:40.640Z,101386.06
2022-11-29T20:04:09.052Z,101391.44
2022-11-29T20:06:37.354Z,101388.78
2022-11-29T20:09:04.809Z,101394.03
2022-11-29T20:11:32.073Z,101381.75
2022-11-29T20:14:00.934Z,101381.72
2022-11-29T20:16:30.077Z,101384.34
2022-11-29T20:18:58.093Z,101375.53
2022-11-29T20:21:29.589Z,101376.37
2022-11-29T20:24:02.364Z,101379.87
2022-11-29T20:26:31.147Z,101374.62
2022-11-29T20:28:58.796Z,101372.84
2022-11-29T20:31:32.269Z,101364.00
2022-11-29T20:33:59.208Z,101364.84
2022-11-29T20:36:50.962Z,101363.09
2022-11-29T20:39:56.488Z,101367.44
2022-11-29T20:42:29.598Z,101367.34
2022-11-29T20:45:02.203Z,101369.03
2022-11-29T20:47:34.614Z,101365.53
2022-11-29T20:50:01.855Z,101368.09
2022-11-29T20:52:47.287Z,101368.03
2022-11-29T20:55:14.294Z,101369.78
2022-11-29T20:57:42.450Z,101354.84
2022-11-29T21:00:15.639Z,101354.78
2022-11-29T21:02:42.753Z,101360.03
2022-11-29T21:05:11.244Z,101354.72
2022-11-29T21:07:38.405Z,101362.59
2022-11-29T21:10:06.047Z,101352.84
2022-11-29T21:12:33.607Z,101362.53
2022-11-29T21:15:00.860Z,101358.09
2022-11-29T21:17:33.453Z,101360.66
2022-11-29T21:20:01.886Z,101359.72
2022-11-29T21:22:39.880Z,101361.41
2022-11-29T21:25:09.873Z,101368.44
2022-11-29T21:27:37.203Z,101368.38
2022-11-29T21:30:06.163Z,101354.28
2022-11-29T21:32:33.705Z,101361.22
2022-11-29T21:35:00.551Z,101364.69
2022-11-29T21:37:30.370Z,101364.63
2022-11-29T21:39:57.940Z,101361.03
2022-11-29T21:42:24.844Z,101359.22
2022-11-29T21:44:51.630Z,101362.72
2022-11-29T21:47:18.501Z,101364.44
2022-11-29T21:49:46.798Z,101364.41
2022-11-29T21:52:19.084Z,101364.38
2022-11-29T21:54:49.163Z,101363.47
2022-11-29T21:57:16.052Z,101366.06
2022-11-29T21:59:43.043Z,101357.19
2022-11-29T22:02:09.992Z,101361.59
2022-11-29T22:04:36.844Z,101365.09
2022-11-29T22:07:03.604Z,101364.16
2022-11-29T22:09:30.403Z,101354.41
2022-11-29T22:11:58.952Z,101356.19
2022-11-29T22:14:25.771Z,101356.13
2022-11-29T22:16:54.894Z,101356.97
2022-11-29T22:19:28.287Z,101356.91
2022-11-29T22:22:00.151Z,101362.22
2022-11-29T22:24:29.155Z,101361.25
2022-11-29T22:26:56.471Z,101366.50
2022-11-29T22:29:23.802Z,101360.34
2022-11-29T22:31:55.345Z,101355.00
2022-11-29T22:34:25.094Z,101360.31
2022-11-29T22:36:51.966Z,101357.66
2022-11-29T22:39:18.737Z,101355.87
2022-11-29T22:41:52.237Z,101359.34
2022-11-29T22:44:20.875Z,101342.66
2022-11-29T22:46:47.863Z,101346.13
2022-11-29T22:49:14.714Z,101349.63
2022-11-29T22:51:41.470Z,101347.84
2022-11-29T22:54:11.337Z,101346.06
2022-11-29T22:56:39.772Z,101339.88
2022-11-29T22:59:08.231Z,101344.28
2022-11-29T23:01:37.368Z,101338.97
2022-11-29T23:04:07.103Z,101343.34
2022-11-29T23:06:36.858Z,101340.69
2022-11-29T23:09:21.040Z,101330.12
2022-11-29T23:11:52.599Z,101329.19
2022-11-29T23:14:20.209Z,101329.19
2022-11-29T23:16:47.134Z,101337.09
2022-11-29T23:19:13.987Z,101333.56
2022-11-29T23:21:41.248Z,101330.03
2022-11-29T23:24:08.169Z,101322.94
2022-11-29T23:26:39.547Z,101328.25
2022-11-29T23:29:09.428Z,101328.25
2022-11-29T23:31:36.288Z,101322.94
2022-11-29T23:34:03.591Z,101328.19
2022-11-29T23:36:30.568Z,101322.06
2022-11-29T23:38:57.899Z,101321.13
2022-11-29T23:41:24.752Z,101322.03
2022-11-29T23:43:51.641Z,101321.13
2022-11-29T23:46:20.982Z,101315.78
2022-11-29T23:48:48.368Z,101316.69
2022-11-29T23:51:16.245Z,101322.84
2022-11-29T23:53:43.477Z,101321.06
2022-11-29T23:56:13.810Z,101313.09
2022-11-29T23:58:41.331Z,101316.62
